Celle Airport ETHC

Flugplatz Daten

Name: Celle Airport

Ident: ETHC

Lat: 52,59120178

Long: 10,02210045

Platzhöhe: 129 ft

IataCode: ZCN

City:

Metar

2021/10/16 18:20
ETHC 161820Z AUTO 21001KT 7000 // ////// 09/07 Q1021 ///

Taf

Gewünschte Webcam nicht vorhanden? Dann fügen Sie eine hinzu. Sie wird dann so schnell wie möglich freigeschaltet
Url: Title: